Time;durP1;ratioP1;P1;durP2;ratioP2;P2;SDS_P1;SDS_P2;PMS_P1;PMS_P2;Temp;Humidity;BMP_temperature;BMP_pressure;BME280_temperature;BME280_humidity;BME280_pressure;Samples;Min_cycle;Max_cycle;Signal;HPM_P1;HPM_P2
2023/09/23 00:02:23;;;;;;;24.17;15.45;;;;;;;22.38;51.19;100795.72;4991209;28;20072;-33
2023/09/23 00:04:50;;;;;;;22.85;15.35;;;;;;;22.35;51.19;100796.06;4995086;28;20434;-34
2023/09/23 00:07:18;;;;;;;23.10;15.48;;;;;;;22.32;50.78;100802.69;4996140;28;20054;-34
2023/09/23 00:09:44;;;;;;;21.65;14.10;;;;;;;22.29;50.78;100803.06;4996682;28;20406;-34
2023/09/23 00:12:12;;;;;;;23.05;15.13;;;;;;;22.29;51.12;100813.03;4986404;28;20050;-34
2023/09/23 00:14:38;;;;;;;24.08;15.38;;;;;;;22.27;51.48;100810.50;4984908;28;20047;-34
2023/09/23 00:17:06;;;;;;;23.20;14.43;;;;;;;22.25;51.22;100809.84;4987593;28;20066;-34
2023/09/23 00:19:34;;;;;;;20.27;13.25;;;;;;;22.23;50.92;100802.94;4979781;28;20108;-34
2023/09/23 00:22:01;;;;;;;22.05;13.32;;;;;;;22.20;51.48;100804.16;4985380;28;20050;-34
2023/09/23 00:24:28;;;;;;;20.02;13.68;;;;;;;22.18;51.36;100809.72;4982988;28;20054;-34
2023/09/23 00:26:59;;;;;;;21.52;14.18;;;;;;;22.16;50.93;100809.09;4982007;28;20058;-34
2023/09/23 00:29:27;;;;;;;20.73;13.25;;;;;;;22.16;51.18;100802.84;4984083;28;20465;-33
2023/09/23 00:31:54;;;;;;;20.77;13.55;;;;;;;22.13;51.04;100793.25;4984611;28;20328;-33
2023/09/23 00:34:23;;;;;;;19.85;12.85;;;;;;;22.13;51.17;100793.25;4984803;28;20042;-33
2023/09/23 00:36:51;;;;;;;20.52;13.60;;;;;;;22.13;51.45;100787.84;4988275;28;20054;-33
2023/09/23 00:39:18;;;;;;;19.50;13.00;;;;;;;22.12;51.25;100785.31;4990099;28;20046;-33
2023/09/23 00:41:44;;;;;;;18.55;12.68;;;;;;;22.10;51.32;100788.16;4985214;28;20054;-33
2023/09/23 00:44:11;;;;;;;19.27;12.75;;;;;;;22.10;51.28;100776.53;4985970;28;20078;-33
2023/09/23 00:46:39;;;;;;;20.65;12.75;;;;;;;22.09;51.47;100782.97;4984194;28;20050;-33
2023/09/23 00:49:07;;;;;;;19.10;12.55;;;;;;;22.08;51.72;100784.00;4988234;28;20058;-33
2023/09/23 00:51:37;;;;;;;19.85;12.43;;;;;;;22.06;51.48;100781.44;4986517;28;20051;-34
2023/09/23 00:54:13;;;;;;;19.63;12.90;;;;;;;22.06;51.26;100788.72;5026719;28;20129;-33
2023/09/23 00:56:41;;;;;;;19.23;12.43;;;;;;;22.06;51.46;100796.81;4988734;28;20046;-34
2023/09/23 00:59:08;;;;;;;18.20;12.30;;;;;;;22.04;51.40;100794.31;4990117;28;20465;-34
2023/09/23 01:01:34;;;;;;;17.85;11.80;;;;;;;22.03;51.68;100799.88;4993078;28;20049;-34
2023/09/23 01:04:01;;;;;;;17.35;11.25;;;;;;;22.00;51.75;100793.00;4994865;28;20184;-34
2023/09/23 01:06:28;;;;;;;17.65;11.80;;;;;;;21.99;51.68;100794.03;4991183;28;20054;-33
2023/09/23 01:08:57;;;;;;;17.40;11.85;;;;;;;21.98;51.22;100795.00;4990363;28;20058;-33
2023/09/23 01:11:25;;;;;;;18.40;11.98;;;;;;;21.97;51.40;100797.91;4987151;28;20046;-33
2023/09/23 01:13:52;;;;;;;17.30;11.65;;;;;;;21.96;51.74;100802.47;4997810;28;20128;-33
2023/09/23 01:16:21;;;;;;;16.13;11.13;;;;;;;21.94;51.61;100809.88;4989422;28;20047;-34
2023/09/23 01:18:49;;;;;;;17.05;10.52;;;;;;;21.93;51.47;100813.63;4992829;28;20042;-34
2023/09/23 01:21:16;;;;;;;16.75;10.90;;;;;;;21.91;51.56;100815.66;4994662;28;20457;-34
2023/09/23 01:23:46;;;;;;;16.50;11.35;;;;;;;21.89;51.77;100821.22;4990203;28;20129;-33
2023/09/23 01:26:13;;;;;;;15.90;10.95;;;;;;;21.89;51.42;100833.88;4991070;28;20046;-34
2023/09/23 01:28:39;;;;;;;15.82;11.05;;;;;;;21.86;51.59;100834.25;4992590;28;20072;-33
2023/09/23 01:31:07;;;;;;;17.30;11.05;;;;;;;21.84;51.94;100825.50;4994045;28;20064;-33
2023/09/23 01:33:34;;;;;;;17.30;10.95;;;;;;;21.83;51.75;100838.16;4991382;28;20058;-33
2023/09/23 01:36:04;;;;;;;17.23;10.75;;;;;;;21.82;51.64;100838.31;4993322;28;20034;-33
2023/09/23 01:38:31;;;;;;;15.93;10.88;;;;;;;21.79;51.59;100842.22;4988407;28;20101;-33
2023/09/23 01:41:01;;;;;;;14.38;9.90;;;;;;;21.78;52.00;100831.59;4988459;28;20471;-33
2023/09/23 01:43:29;;;;;;;13.80;9.20;;;;;;;21.78;51.78;100839.69;4996641;28;20112;-33
2023/09/23 01:46:02;;;;;;;14.98;10.30;;;;;;;21.75;51.70;100849.00;5000493;28;20057;-33
2023/09/23 01:48:29;;;;;;;15.50;10.05;;;;;;;21.74;52.03;100841.06;4992724;28;20371;-33
2023/09/23 01:50:59;;;;;;;17.13;9.95;;;;;;;21.73;51.86;100842.09;4994961;28;20053;-33
2023/09/23 01:53:27;;;;;;;14.65;10.15;;;;;;;21.72;51.82;100849.34;4987062;28;20055;-33
2023/09/23 01:55:55;;;;;;;13.93;8.77;;;;;;;21.71;51.61;100841.41;4992774;28;20049;-33
2023/09/23 01:58:22;;;;;;;12.45;8.43;;;;;;;21.68;51.86;100843.47;4997747;28;20054;-33
2023/09/23 02:00:55;;;;;;;13.35;8.82;;;;;;;21.66;52.16;100834.69;4998972;28;20096;-33
2023/09/23 02:03:23;;;;;;;14.97;8.77;;;;;;;21.65;51.83;100832.19;4994415;28;20056;-33
2023/09/23 02:05:51;;;;;;;13.32;8.98;;;;;;;21.64;51.90;100841.31;5028425;28;20363;-33
2023/09/23 02:08:18;;;;;;;13.80;8.73;;;;;;;21.62;51.54;100830.66;4995304;28;20055;-33
2023/09/23 02:10:45;;;;;;;12.43;8.63;;;;;;;21.62;52.04;100836.06;4996337;28;20057;-33
2023/09/23 02:13:12;;;;;;;10.95;8.15;;;;;;;21.60;52.41;100839.97;4996381;28;20046;-33
2023/09/23 02:15:39;;;;;;;12.02;8.32;;;;;;;21.59;52.16;100841.84;4999298;28;20442;-33
2023/09/23 02:18:06;;;;;;;12.00;7.85;;;;;;;21.58;51.92;100842.84;4998573;28;20064;-33
2023/09/23 02:20:34;;;;;;;12.95;8.43;;;;;;;21.58;52.22;100842.00;4993758;28;20078;-33
2023/09/23 02:23:01;;;;;;;12.75;7.72;;;;;;;21.56;51.95;100850.28;4994584;28;20434;-33
2023/09/23 02:25:27;;;;;;;11.40;7.80;;;;;;;21.54;51.95;100838.81;4987687;28;20149;-33
2023/09/23 02:27:57;;;;;;;11.30;7.50;;;;;;;21.53;51.93;100845.22;4995367;28;20046;-33
2023/09/23 02:30:24;;;;;;;10.90;7.10;;;;;;;21.53;52.17;100844.41;4996216;28;20128;-33
2023/09/23 02:32:51;;;;;;;11.98;7.80;;;;;;;21.53;51.88;100844.41;4985489;28;20050;-33
2023/09/23 02:35:18;;;;;;;10.15;7.30;;;;;;;21.50;52.02;100859.06;4992049;28;20062;-33
2023/09/23 02:37:46;;;;;;;10.85;7.30;;;;;;;21.50;52.06;100859.06;4989901;28;20327;-33
2023/09/23 02:40:16;;;;;;;10.02;7.22;;;;;;;21.49;51.79;100860.09;4989077;28;20458;-33
2023/09/23 02:42:44;;;;;;;10.02;7.07;;;;;;;21.49;52.10;100864.63;4992448;28;20046;-33
2023/09/23 02:45:13;;;;;;;10.38;6.70;;;;;;;21.48;51.76;100873.75;4989876;28;20588;-33
2023/09/23 02:47:42;;;;;;;12.70;7.50;;;;;;;21.47;51.95;100872.06;4988240;28;20133;-33
2023/09/23 02:50:10;;;;;;;11.15;7.32;;;;;;;21.46;52.07;100878.47;4997200;28;20105;-33
2023/09/23 02:52:38;;;;;;;11.13;6.25;;;;;;;21.45;51.86;100880.31;4993262;28;20357;-33
2023/09/23 02:55:12;;;;;;;10.60;6.60;;;;;;;21.44;52.13;100879.50;4989322;28;20595;-33
2023/09/23 02:57:41;;;;;;;9.98;6.22;;;;;;;21.43;52.17;100880.50;4991683;28;20085;-33
2023/09/23 03:00:30;;;;;;;10.77;5.70;;;;;;;21.43;51.85;100879.69;4994959;28;20442;-34
2023/09/23 03:02:59;;;;;;;9.90;6.35;;;;;;;21.42;51.87;100889.59;4994181;28;20046;-33
2023/09/23 03:05:31;;;;;;;8.93;5.90;;;;;;;21.40;51.78;100880.84;4993828;28;20046;-33
2023/09/23 03:07:59;;;;;;;11.02;6.93;;;;;;;21.40;52.14;100883.56;4991463;28;20049;-33
2023/09/23 03:10:39;;;;;;;8.43;5.50;;;;;;;21.40;51.71;100877.31;4989390;28;20049;-33
2023/09/23 03:13:07;;;;;;;7.85;5.63;;;;;;;21.39;51.95;100883.75;4996221;28;20141;-33
2023/09/23 03:15:44;;;;;;;8.63;5.70;;;;;;;21.38;52.05;100879.34;4994190;28;20132;-33
2023/09/23 03:18:14;;;;;;;8.57;5.38;;;;;;;21.37;51.68;100880.38;4989468;28;20519;-33
2023/09/23 03:20:41;;;;;;;8.13;5.43;;;;;;;21.36;51.78;100881.38;4985344;28;20481;-33
2023/09/23 03:23:12;;;;;;;8.52;5.47;;;;;;;21.36;51.92;100884.09;4995988;28;20057;-33
2023/09/23 03:25:46;;;;;;;7.28;5.07;;;;;;;21.34;51.97;100880.72;4996136;28;20489;-33
2023/09/23 03:28:17;;;;;;;7.82;5.47;;;;;;;21.34;52.25;100884.25;4991766;28;20120;-33
2023/09/23 03:30:47;;;;;;;7.43;5.25;;;;;;;21.34;51.68;100883.41;4991393;28;20420;-33
2023/09/23 03:33:20;;;;;;;7.55;4.63;;;;;;;21.32;52.21;100883.59;4991010;28;20353;-33
2023/09/23 03:35:47;;;;;;;7.93;4.80;;;;;;;21.32;52.22;100890.81;4992134;28;20377;-33
2023/09/23 03:38:15;;;;;;;6.90;4.75;;;;;;;21.31;52.00;100892.66;4988569;28;20129;-33
2023/09/23 03:40:52;;;;;;;7.97;4.55;;;;;;;21.29;52.11;100894.69;4990298;28;20042;-33
2023/09/23 03:43:19;;;;;;;8.10;4.82;;;;;;;21.30;52.05;100899.03;4995034;28;20112;-33
2023/09/23 03:45:47;;;;;;;6.10;4.05;;;;;;;21.30;52.00;100903.59;4994792;28;20461;-33
2023/09/23 03:48:14;;;;;;;6.57;4.03;;;;;;;21.28;51.87;100909.19;4996474;28;20081;-33
2023/09/23 03:50:41;;;;;;;6.15;4.28;;;;;;;21.28;52.10;100917.28;4994097;28;20052;-33
2023/09/23 03:53:09;;;;;;;5.72;4.25;;;;;;;21.26;52.32;100915.75;4991074;28;20137;-33
2023/09/23 03:55:38;;;;;;;5.85;3.95;;;;;;;21.25;52.31;100919.47;4997318;28;20046;-33
2023/09/23 03:58:05;;;;;;;6.53;4.65;;;;;;;21.24;52.38;100926.72;4995904;28;20058;-33
2023/09/23 04:00:34;;;;;;;6.45;4.07;;;;;;;21.24;51.87;100925.88;4995313;28;20093;-33
2023/09/23 04:03:01;;;;;;;5.38;3.85;;;;;;;21.22;52.16;100923.34;4989171;28;20065;-33
2023/09/23 04:05:31;;;;;;;7.93;4.63;;;;;;;21.20;52.27;100934.31;4992931;28;20102;-33
2023/09/23 04:07:58;;;;;;;8.20;4.70;;;;;;;21.20;52.07;100934.31;4993094;28;20439;-33
2023/09/23 04:10:25;;;;;;;6.50;4.18;;;;;;;21.20;52.22;100933.47;4996627;28;20108;-33
2023/09/23 04:12:54;;;;;;;5.32;3.33;;;;;;;21.19;51.90;100940.72;4991325;28;20047;-33
2023/09/23 04:15:27;;;;;;;6.95;4.32;;;;;;;21.18;52.26;100941.72;4998863;28;20069;-34
2023/09/23 04:17:53;;;;;;;6.22;3.85;;;;;;;21.18;51.96;100949.78;4990125;28;20327;-33
2023/09/23 04:20:20;;;;;;;8.55;3.92;;;;;;;21.19;52.11;100947.97;4995012;28;20054;-33
2023/09/23 04:22:47;;;;;;;5.70;3.78;;;;;;;21.17;52.23;100948.13;4992949;28;20074;-33
2023/09/23 04:25:14;;;;;;;4.38;3.28;;;;;;;21.17;52.40;100944.59;4993935;28;20057;-33
2023/09/23 04:27:40;;;;;;;5.10;3.72;;;;;;;21.17;52.88;100945.44;4994074;28;20057;-33
2023/09/23 04:30:11;;;;;;;6.47;3.47;;;;;;;21.16;51.93;100946.44;4991347;28;20050;-33
2023/09/23 04:32:39;;;;;;;5.18;3.45;;;;;;;21.17;52.54;100953.50;4992502;28;20054;-33
2023/09/23 04:35:07;;;;;;;5.55;3.30;;;;;;;21.16;52.20;100951.84;4986691;28;20050;-33
2023/09/23 04:37:37;;;;;;;5.70;3.70;;;;;;;21.17;52.18;100955.38;4988394;28;20650;-33
2023/09/23 04:40:13;;;;;;;6.10;3.88;;;;;;;21.16;52.01;100965.31;4992132;28;20492;-33
2023/09/23 04:42:42;;;;;;;5.25;3.33;;;;;;;21.17;52.42;100969.69;4995514;28;20062;-33
2023/09/23 04:45:09;;;;;;;4.22;2.90;;;;;;;21.16;52.04;100967.16;4990463;28;20370;-33
2023/09/23 04:47:37;;;;;;;5.95;3.58;;;;;;;21.16;52.57;100965.31;4996476;28;20501;-33
2023/09/23 04:50:05;;;;;;;5.10;2.92;;;;;;;21.16;51.99;100972.56;4994548;28;20112;-33
2023/09/23 04:52:32;;;;;;;6.15;3.63;;;;;;;21.15;52.47;100974.41;4998698;28;20116;-33
2023/09/23 04:54:58;;;;;;;4.38;3.03;;;;;;;21.15;52.10;100976.28;4989131;28;20112;-33
2023/09/23 04:57:25;;;;;;;5.93;3.60;;;;;;;21.14;52.53;100977.28;4992192;28;20252;-33
2023/09/23 04:59:52;;;;;;;4.85;3.03;;;;;;;21.13;52.01;100983.69;4994933;28;20112;-33
2023/09/23 05:02:19;;;;;;;4.20;3.13;;;;;;;21.13;52.26;100989.91;4992423;28;20508;-33
2023/09/23 05:04:46;;;;;;;3.78;2.67;;;;;;;21.13;52.15;100989.06;4994647;28;20058;-33
2023/09/23 05:07:13;;;;;;;5.40;3.20;;;;;;;21.13;52.13;100999.84;4989326;28;20050;-33
2023/09/23 05:09:41;;;;;;;5.93;3.20;;;;;;;21.12;52.02;101001.72;4994571;28;20054;-33
2023/09/23 05:12:10;;;;;;;5.18;3.25;;;;;;;21.12;52.47;101000.88;4986685;28;20058;-33
2023/09/23 05:14:39;;;;;;;3.95;2.70;;;;;;;21.11;52.22;101001.88;4996828;28;20077;-33
2023/09/23 05:17:06;;;;;;;3.95;2.47;;;;;;;21.11;52.04;101007.28;4989796;28;20399;-33
2023/09/23 05:19:33;;;;;;;4.72;2.95;;;;;;;21.09;52.24;101015.50;4998291;28;20159;-33
2023/09/23 05:22:00;;;;;;;4.68;2.80;;;;;;;21.09;51.90;101018.22;4992485;28;20743;-33
2023/09/23 05:24:27;;;;;;;5.00;3.05;;;;;;;21.08;52.12;101018.41;4994936;28;20113;-33
2023/09/23 05:26:55;;;;;;;5.25;2.80;;;;;;;21.06;52.58;101023.94;5026634;28;20109;-33
2023/09/23 05:29:24;;;;;;;4.30;2.65;;;;;;;21.06;51.92;101032.03;4996975;28;20046;-33
2023/09/23 05:31:52;;;;;;;4.18;2.67;;;;;;;21.05;51.96;101034.91;4993504;28;20141;-33
2023/09/23 05:34:19;;;;;;;4.70;3.05;;;;;;;21.04;52.17;101042.16;4998430;28;20050;-33
2023/09/23 05:36:48;;;;;;;4.03;2.30;;;;;;;21.04;52.14;101049.38;5003173;28;20056;-33
2023/09/23 05:39:19;;;;;;;2.88;2.10;;;;;;;21.03;51.94;101053.09;4995199;28;20082;-33
2023/09/23 05:41:47;;;;;;;4.57;2.50;;;;;;;21.02;51.92;101062.16;4990781;28;20055;-33
2023/09/23 05:44:16;;;;;;;5.15;2.75;;;;;;;21.02;52.33;101064.88;4989156;28;20050;-33
2023/09/23 05:46:43;;;;;;;4.25;2.53;;;;;;;21.00;52.41;101066.91;4998267;28;20045;-33
2023/09/23 05:49:12;;;;;;;4.18;2.40;;;;;;;21.00;52.15;101072.28;4987756;28;20161;-33
2023/09/23 05:51:39;;;;;;;4.90;2.30;;;;;;;20.99;52.68;101071.47;4991941;28;20042;-33
2023/09/23 05:54:08;;;;;;;5.07;2.33;;;;;;;20.98;52.43;101067.06;4983309;28;20054;-33
2023/09/23 05:56:35;;;;;;;4.13;2.60;;;;;;;20.98;52.20;101071.59;4989300;28;20065;-33
2023/09/23 05:59:02;;;;;;;4.15;2.58;;;;;;;20.98;52.50;101071.59;4985935;28;20052;-33
2023/09/23 06:01:29;;;;;;;5.53;2.67;;;;;;;20.97;52.42;101070.75;4980618;28;20054;-33
2023/09/23 06:03:56;;;;;;;2.90;1.90;;;;;;;20.98;52.57;101077.00;4980960;28;20050;-33
2023/09/23 06:06:23;;;;;;;3.50;2.00;;;;;;;20.97;52.26;101076.16;4983962;28;20047;-33
2023/09/23 06:08:50;;;;;;;4.70;2.60;;;;;;;20.97;52.21;101076.16;4985171;28;20086;-33
2023/09/23 06:11:17;;;;;;;4.20;2.47;;;;;;;20.96;52.26;101090.66;4980729;28;20131;-33
2023/09/23 06:13:44;;;;;;;3.85;2.28;;;;;;;20.95;52.22;101095.19;4985353;28;20069;-33
2023/09/23 06:16:11;;;;;;;3.95;2.28;;;;;;;20.97;52.33;101092.31;4984005;28;20101;-33
2023/09/23 06:18:38;;;;;;;3.45;2.35;;;;;;;20.95;52.22;101105.97;4984119;28;20136;-33
2023/09/23 06:21:06;;;;;;;3.78;2.22;;;;;;;20.95;52.28;101103.28;4983304;28;20050;-33
2023/09/23 06:23:33;;;;;;;4.97;2.30;;;;;;;20.96;52.07;101101.44;4979747;28;20061;-33
2023/09/23 06:26:02;;;;;;;3.22;2.42;;;;;;;20.96;52.32;101109.50;4983055;28;20062;-33
2023/09/23 06:28:29;;;;;;;3.58;1.90;;;;;;;20.96;52.28;101112.19;4989958;28;20050;-33
2023/09/23 06:30:56;;;;;;;4.90;2.35;;;;;;;20.97;52.33;101116.56;4985602;28;20043;-33
2023/09/23 06:33:23;;;;;;;2.40;1.88;;;;;;;20.97;52.18;101121.97;4981358;28;20509;-33
2023/09/23 06:35:50;;;;;;;3.72;1.67;;;;;;;20.97;52.02;101127.34;4985398;28;20120;-33
2023/09/23 06:38:17;;;;;;;2.95;2.10;;;;;;;20.97;52.19;101119.28;4987315;28;20141;-33
2023/09/23 06:40:43;;;;;;;3.97;2.08;;;;;;;20.98;52.44;101125.50;4982490;28;20117;-33
2023/09/23 06:43:10;;;;;;;4.18;2.20;;;;;;;20.98;52.37;101122.81;4980436;28;20436;-33
2023/09/23 06:45:37;;;;;;;4.20;2.20;;;;;;;20.99;52.39;101132.59;5012075;28;20395;-33
2023/09/23 06:48:04;;;;;;;5.30;2.55;;;;;;;20.99;51.93;101133.44;4983203;28;20058;-32
2023/09/23 06:50:30;;;;;;;3.65;2.30;;;;;;;21.01;51.95;101135.94;4983436;28;20050;-33
2023/09/23 06:52:57;;;;;;;5.63;2.78;;;;;;;21.01;52.11;101142.19;4983351;28;20438;-33
2023/09/23 06:55:24;;;;;;;3.78;2.42;;;;;;;21.01;52.15;101144.88;4981621;28;20094;-33
2023/09/23 06:57:50;;;;;;;3.67;2.40;;;;;;;21.02;51.93;101137.63;4982739;28;20054;-33
2023/09/23 07:00:18;;;;;;;5.00;2.28;;;;;;;21.03;52.26;101144.72;4985691;28;20077;-33
2023/09/23 07:02:44;;;;;;;5.40;2.58;;;;;;;21.02;51.92;101149.25;4984397;28;20423;-33
2023/09/23 07:05:11;;;;;;;5.03;2.45;;;;;;;21.03;52.07;101145.56;4982442;28;20058;-33
2023/09/23 07:07:38;;;;;;;4.75;2.35;;;;;;;21.04;52.02;101157.19;4984220;28;20043;-33
2023/09/23 07:10:05;;;;;;;4.75;1.83;;;;;;;21.04;51.75;101155.34;4983361;28;20335;-33
2023/09/23 07:12:31;;;;;;;4.53;2.20;;;;;;;21.04;52.04;101154.50;4984300;28;20108;-33
2023/09/23 07:14:58;;;;;;;6.55;2.10;;;;;;;21.05;52.31;101153.47;4982235;28;20047;-33
2023/09/23 07:17:26;;;;;;;3.72;2.38;;;;;;;21.05;51.89;101164.25;4977853;28;20078;-33
2023/09/23 07:19:52;;;;;;;3.50;2.25;;;;;;;21.05;52.14;101164.25;4982092;28;20117;-33
2023/09/23 07:22:19;;;;;;;3.83;2.40;;;;;;;21.05;52.30;101175.03;4984362;28;20061;-33
2023/09/23 07:24:46;;;;;;;3.65;2.20;;;;;;;21.05;52.06;101173.19;4981796;28;20414;-33
2023/09/23 07:27:13;;;;;;;3.63;2.38;;;;;;;21.05;52.38;101170.50;4983271;28;20331;-33
2023/09/23 07:29:39;;;;;;;4.85;2.40;;;;;;;21.06;52.39;101182.09;4989151;28;20511;-32
2023/09/23 07:32:06;;;;;;;4.82;2.60;;;;;;;21.08;52.44;101190.88;4983413;28;20119;-33
2023/09/23 07:34:33;;;;;;;2.80;2.05;;;;;;;21.08;52.07;101197.13;5017815;28;20144;-33
2023/09/23 07:37:00;;;;;;;5.22;1.92;;;;;;;21.10;51.98;101211.25;4994220;28;20085;-33
2023/09/23 07:39:28;;;;;;;3.65;2.08;;;;;;;21.10;52.07;101216.66;4983074;28;20053;-33
2023/09/23 07:41:54;;;;;;;3.08;1.95;;;;;;;21.13;52.52;101220.88;4983675;28;20042;-33
2023/09/23 07:44:21;;;;;;;4.65;2.58;;;;;;;21.15;52.19;101214.31;4988667;28;20049;-33
2023/09/23 07:46:48;;;;;;;3.72;2.10;;;;;;;21.16;51.77;101216.00;4984353;28;20173;-33
2023/09/23 07:49:14;;;;;;;4.78;2.45;;;;;;;21.18;51.74;101232.84;4986117;28;20050;-33
2023/09/23 07:51:42;;;;;;;3.78;2.30;;;;;;;21.19;51.67;101231.84;4982837;28;20105;-33
2023/09/23 07:54:08;;;;;;;5.00;2.13;;;;;;;21.20;51.77;101233.53;4981640;28;20074;-33
2023/09/23 07:56:35;;;;;;;4.10;2.40;;;;;;;21.20;52.09;101238.91;4981862;28;20087;-33
2023/09/23 07:59:01;;;;;;;4.13;2.22;;;;;;;21.24;52.33;101239.44;4984554;28;20137;-33
2023/09/23 08:01:29;;;;;;;4.80;2.35;;;;;;;21.25;51.94;101243.81;4980153;28;20058;-33
2023/09/23 08:03:55;;;;;;;5.30;2.28;;;;;;;21.28;51.74;101253.44;4978955;28;20495;-34
2023/09/23 08:06:22;;;;;;;3.85;2.00;;;;;;;21.28;51.63;101262.38;4982314;28;20402;-33
2023/09/23 08:08:49;;;;;;;4.05;2.08;;;;;;;21.28;51.45;101259.66;4994140;28;20512;-33
2023/09/23 08:11:15;;;;;;;3.80;2.30;;;;;;;21.29;51.59;101268.59;4988579;28;20051;-33
2023/09/23 08:13:42;;;;;;;5.50;2.40;;;;;;;21.29;51.77;101271.28;4977900;28;20077;-33
2023/09/23 08:16:08;;;;;;;4.88;2.42;;;;;;;21.28;51.84;101265.06;4981958;28;20058;-33
2023/09/23 08:18:35;;;;;;;4.05;2.15;;;;;;;21.29;51.90;101274.00;4987092;28;20046;-33
2023/09/23 08:21:02;;;;;;;4.18;2.20;;;;;;;21.29;51.91;101269.44;4997417;28;20061;-33
2023/09/23 08:23:28;;;;;;;3.53;2.33;;;;;;;21.29;51.48;101279.38;4980454;28;20373;-33
2023/09/23 08:25:56;;;;;;;3.80;2.50;;;;;;;21.30;51.91;101286.44;4987700;28;20053;-33
2023/09/23 08:28:23;;;;;;;5.15;3.22;;;;;;;21.33;51.87;101294.25;4988799;28;20086;-34
2023/09/23 08:30:51;;;;;;;8.40;3.60;;;;;;;21.34;51.81;101294.06;4991163;28;20058;-34
2023/09/23 08:33:18;;;;;;;6.97;3.60;;;;;;;21.37;52.23;101303.69;4991209;28;20047;-34
2023/09/23 08:35:48;;;;;;;9.45;4.43;;;;;;;21.38;52.38;101305.38;4997565;28;20043;-34
2023/09/23 08:38:15;;;;;;;8.23;4.10;;;;;;;21.40;52.29;101301.53;4986691;28;20049;-34
2023/09/23 08:40:44;;;;;;;7.80;4.22;;;;;;;21.43;52.31;101308.44;4994390;28;20046;-33
2023/09/23 08:43:11;;;;;;;8.38;5.03;;;;;;;21.46;52.85;101313.50;4993676;28;20474;-34
2023/09/23 08:45:46;;;;;;;9.38;5.10;;;;;;;21.50;52.84;101325.63;4991336;28;20074;-34
2023/09/23 08:48:13;;;;;;;9.68;3.95;;;;;;;21.53;52.94;101324.47;4994508;28;20053;-34
2023/09/23 08:50:44;;;;;;;10.07;4.25;;;;;;;21.54;52.46;101339.66;4989905;28;20051;-34
2023/09/23 08:53:13;;;;;;;9.38;4.18;;;;;;;21.55;52.70;101344.91;4992143;28;20489;-34
2023/09/23 08:55:42;;;;;;;7.32;4.25;;;;;;;21.52;52.86;101345.22;4986253;28;20108;-34
2023/09/23 08:58:08;;;;;;;8.65;4.10;;;;;;;21.52;52.86;101347.06;4988565;28;20436;-34
2023/09/23 09:00:35;;;;;;;11.07;5.13;;;;;;;21.52;52.52;101353.31;4992189;28;20057;-34
2023/09/23 09:03:01;;;;;;;7.60;4.97;;;;;;;21.52;52.39;101360.56;4983152;28;20058;-34
2023/09/23 09:05:39;;;;;;;8.55;4.85;;;;;;;21.51;52.77;101358.84;4982581;28;20124;-34
2023/09/23 09:08:06;;;;;;;8.63;4.65;;;;;;;21.50;52.53;101360.69;4980377;28;20133;-34
2023/09/23 09:10:33;;;;;;;11.93;5.32;;;;;;;21.50;52.52;101365.25;4975114;28;20105;-34
2023/09/23 09:13:06;;;;;;;8.73;4.88;;;;;;;21.50;52.66;101365.25;4987493;28;20346;-34
2023/09/23 09:15:35;;;;;;;8.70;5.10;;;;;;;21.48;52.51;101378.91;4992217;28;20100;-33
2023/09/23 09:18:05;;;;;;;14.13;5.50;;;;;;;21.47;52.41;101374.53;4991028;28;20054;-34
2023/09/23 09:20:32;;;;;;;10.63;5.57;;;;;;;21.46;52.73;101380.91;4979025;28;20097;-34
2023/09/23 09:22:58;;;;;;;11.40;6.57;;;;;;;21.46;52.95;101383.63;4977654;28;20050;-34
2023/09/23 09:25:25;;;;;;;14.40;6.65;;;;;;;21.46;52.69;101378.22;4975290;28;20051;-34
2023/09/23 09:27:52;;;;;;;12.18;6.25;;;;;;;21.45;52.82;101392.72;4979704;28;20079;-34
2023/09/23 09:30:19;;;;;;;11.85;6.38;;;;;;;21.44;52.96;101389.19;4983254;28;20074;-34
2023/09/23 09:32:47;;;;;;;10.13;5.85;;;;;;;21.44;53.19;101399.13;4980002;28;20382;-34
2023/09/23 09:35:18;;;;;;;11.57;7.07;;;;;;;21.44;53.32;101404.53;4984160;28;20046;-34
2023/09/23 09:37:47;;;;;;;12.85;6.85;;;;;;;21.43;53.04;101401.00;4994421;28;20096;-34
2023/09/23 09:40:20;;;;;;;;;;;;;;;21.42;53.23;101399.28;4993308;28;20046;-34
2023/09/23 09:42:50;;;;;;;13.15;7.05;;;;;;;21.45;52.94;101403.50;4991563;28;19929;-34
2023/09/23 09:45:19;;;;;;;13.57;6.53;;;;;;;21.44;52.98;101399.97;4991234;28;20355;-34
2023/09/23 09:47:50;;;;;;;14.13;6.70;;;;;;;21.43;53.11;101398.28;4979782;28;20101;-34
2023/09/23 09:50:17;;;;;;;12.48;7.10;;;;;;;21.42;53.48;101401.13;4982200;28;20399;-34
2023/09/23 09:52:44;;;;;;;11.40;6.22;;;;;;;21.42;53.43;101407.38;4978486;28;20133;-34
2023/09/23 09:55:20;;;;;;;10.63;5.80;;;;;;;21.42;53.46;101407.38;4980325;28;20113;-34
2023/09/23 09:57:48;;;;;;;10.15;5.93;;;;;;;21.42;53.48;101409.22;4979051;28;20441;-34
2023/09/23 10:00:35;;;;;;;11.00;6.38;;;;;;;21.43;53.63;101410.94;4979654;28;20120;-34
2023/09/23 10:03:06;;;;;;;12.57;5.97;;;;;;;21.44;53.52;101408.06;4979449;28;20050;-34
2023/09/23 10:05:46;;;;;;;15.45;7.65;;;;;;;21.48;53.58;101407.75;4978008;28;20158;-34
2023/09/23 10:08:27;;;;;;;13.45;7.80;;;;;;;21.53;53.93;101406.25;4982604;28;20485;-34
2023/09/23 10:11:04;;;;;;;15.15;8.38;;;;;;;21.59;53.65;101416.38;4982544;28;20042;-35
2023/09/23 10:13:33;;;;;;;16.10;9.73;;;;;;;21.67;53.81;101413.72;4981561;28;20076;-33
2023/09/23 10:16:04;;;;;;;21.45;11.35;;;;;;;21.79;53.73;101416.97;4975764;28;20050;-34
2023/09/23 10:18:37;;;;;;;21.80;11.98;;;;;;;21.93;53.57;101418.16;4982545;28;20525;-32
2023/09/23 10:21:04;;;;;;;21.23;12.75;;;;;;;22.02;53.68;101417.16;4953580;28;20263;-32
2023/09/23 10:23:35;;;;;;;21.83;12.25;;;;;;;22.12;53.68;101427.81;4997018;28;20734;-32
2023/09/23 10:26:18;;;;;;;19.20;11.57;;;;;;;22.19;54.18;101428.84;4986353;28;20064;-33
2023/09/23 10:29:04;;;;;;;19.90;12.43;;;;;;;22.25;53.43;101440.84;4985585;28;20046;-32
2023/09/23 10:31:33;;;;;;;19.15;11.57;;;;;;;22.33;53.25;101446.28;4984360;28;20054;-33
2023/09/23 10:34:08;;;;;;;19.85;12.32;;;;;;;22.36;53.49;101441.38;4987677;28;20410;-33
2023/09/23 10:36:36;;;;;;;37.10;21.05;;;;;;;22.43;53.98;101446.94;4991950;28;20053;-33
2023/09/23 10:39:06;;;;;;;85.13;47.50;;;;;;;22.53;53.33;101447.63;4995969;28;20061;-34
2023/09/23 10:41:36;;;;;;;50.92;30.33;;;;;;;22.60;53.24;101453.22;4961412;28;20061;-33
2023/09/23 10:44:03;;;;;;;52.60;28.20;;;;;;;22.69;53.11;101446.78;4992448;28;20422;-34
2023/09/23 10:46:30;;;;;;;43.33;26.00;;;;;;;22.73;52.73;101458.09;4990916;28;20112;-34
2023/09/23 10:48:58;;;;;;;54.78;30.85;;;;;;;22.77;52.66;101467.56;4992954;28;20057;-33
2023/09/23 10:51:26;;;;;;;51.67;29.95;;;;;;;22.77;52.89;101478.38;4993392;28;20307;-33
2023/09/23 10:53:52;;;;;;;221.40;54.22;;;;;;;22.77;52.97;101481.06;4982078;28;20053;-33
2023/09/23 10:56:20;;;;;;;211.32;55.75;;;;;;;22.76;52.81;101482.94;4992797;28;20049;-33
2023/09/23 10:58:51;;;;;;;107.13;40.10;;;;;;;22.76;52.89;101485.63;4989902;28;20725;-34
2023/09/23 11:01:23;;;;;;;79.22;33.45;;;;;;;22.76;52.75;101480.22;4985318;28;20088;-33
2023/09/23 11:03:51;;;;;;;69.20;33.93;;;;;;;22.78;52.82;101489.00;5000456;28;20497;-33
2023/09/23 11:06:18;;;;;;;62.67;31.60;;;;;;;22.77;52.38;101495.41;4991609;28;20777;-34
2023/09/23 11:08:45;;;;;;;55.47;28.90;;;;;;;22.77;52.33;101500.81;5022188;28;20050;-34
2023/09/23 11:11:12;;;;;;;57.33;29.02;;;;;;;22.78;52.45;101505.22;4989253;28;20455;-34
2023/09/23 11:13:40;;;;;;;55.00;28.15;;;;;;;22.77;52.40;101506.22;4994610;28;20064;-34
2023/09/23 11:16:10;;;;;;;47.15;27.95;;;;;;;22.78;52.67;101507.06;4988737;28;20082;-34
2023/09/23 11:18:38;;;;;;;49.33;26.95;;;;;;;22.79;52.72;101524.97;4992997;28;20085;-35
2023/09/23 11:21:05;;;;;;;44.13;25.48;;;;;;;22.77;52.47;101525.16;4963927;28;20089;-34
2023/09/23 11:23:33;;;;;;;45.75;25.02;;;;;;;22.76;52.77;101525.34;4999797;28;20086;-34
2023/09/23 11:26:00;;;;;;;43.33;24.63;;;;;;;22.75;52.74;101531.72;4991130;28;20072;-35